sensor_id;sensor_type;location;lat;lon;timestamp;temperature;humidity
28193;DHT22;15473;50.840;3.396;2022-10-22T00:00:08;14.90;99.90
28193;DHT22;15473;50.840;3.396;2022-10-22T00:02:41;14.90;99.90
28193;DHT22;15473;50.840;3.396;2022-10-22T00:05:11;14.90;99.90
28193;DHT22;15473;50.840;3.396;2022-10-22T00:07:41;15.00;99.90
28193;DHT22;15473;50.840;3.396;2022-10-22T00:10:11;14.90;99.90
28193;DHT22;15473;50.840;3.396;2022-10-22T00:12:41;15.00;99.90
28193;DHT22;15473;50.840;3.396;2022-10-22T00:15:11;15.00;99.90
28193;DHT22;15473;50.840;3.396;2022-10-22T00:17:41;15.10;99.90
28193;DHT22;15473;50.840;3.396;2022-10-22T00:20:11;15.00;99.90
28193;DHT22;15473;50.840;3.396;2022-10-22T00:22:41;15.00;99.90
28193;DHT22;15473;50.840;3.396;2022-10-22T00:25:11;15.00;99.90
28193;DHT22;15473;50.840;3.396;2022-10-22T00:27:42;15.00;99.90
28193;DHT22;15473;50.840;3.396;2022-10-22T00:30:12;15.00;99.90
28193;DHT22;15473;50.840;3.396;2022-10-22T00:32:42;14.90;99.90
28193;DHT22;15473;50.840;3.396;2022-10-22T00:35:12;15.00;99.90
28193;DHT22;15473;50.840;3.396;2022-10-22T00:37:42;15.00;99.90
28193;DHT22;15473;50.840;3.396;2022-10-22T00:40:12;15.00;99.90
28193;DHT22;15473;50.840;3.396;2022-10-22T00:42:42;14.80;99.90
28193;DHT22;15473;50.840;3.396;2022-10-22T00:45:15;14.80;99.90
28193;DHT22;15473;50.840;3.396;2022-10-22T00:47:57;14.80;99.90
28193;DHT22;15473;50.840;3.396;2022-10-22T00:53:17;14.80;99.90
28193;DHT22;15473;50.840;3.396;2022-10-22T00:55:43;14.80;99.90
28193;DHT22;15473;50.840;3.396;2022-10-22T00:58:15;14.80;99.90
28193;DHT22;15473;50.840;3.396;2022-10-22T01:00:46;14.80;99.90
28193;DHT22;15473;50.840;3.396;2022-10-22T01:03:17;14.80;99.90
28193;DHT22;15473;50.840;3.396;2022-10-22T01:05:55;14.80;99.90
28193;DHT22;15473;50.840;3.396;2022-10-22T01:11:20;14.70;99.90
28193;DHT22;15473;50.840;3.396;2022-10-22T01:14:02;14.70;99.90
28193;DHT22;15473;50.840;3.396;2022-10-22T01:16:36;14.70;99.90
28193;DHT22;15473;50.840;3.396;2022-10-22T01:22:19;14.60;99.90
28193;DHT22;15473;50.840;3.396;2022-10-22T01:24:52;14.60;99.90
28193;DHT22;15473;50.840;3.396;2022-10-22T01:30:11;14.60;99.90
28193;DHT22;15473;50.840;3.396;2022-10-22T01:32:55;14.50;99.90
28193;DHT22;15473;50.840;3.396;2022-10-22T01:38:17;14.50;99.90
28193;DHT22;15473;50.840;3.396;2022-10-22T01:40:49;14.60;99.90
28193;DHT22;15473;50.840;3.396;2022-10-22T01:43:20;14.50;99.90
28193;DHT22;15473;50.840;3.396;2022-10-22T01:45:53;14.60;99.90
28193;DHT22;15473;50.840;3.396;2022-10-22T01:48:37;14.60;99.90
28193;DHT22;15473;50.840;3.396;2022-10-22T01:54:14;14.60;99.90
28193;DHT22;15473;50.840;3.396;2022-10-22T01:56:50;14.60;99.90
28193;DHT22;15473;50.840;3.396;2022-10-22T02:04:36;14.50;99.90
28193;DHT22;15473;50.840;3.396;2022-10-22T02:07:07;14.50;99.90
28193;DHT22;15473;50.840;3.396;2022-10-22T02:09:40;14.50;99.90
28193;DHT22;15473;50.840;3.396;2022-10-22T02:12:12;14.50;99.90
28193;DHT22;15473;50.840;3.396;2022-10-22T02:14:43;14.50;99.90
28193;DHT22;15473;50.840;3.396;2022-10-22T02:17:17;14.50;99.90
28193;DHT22;15473;50.840;3.396;2022-10-22T02:20:13;14.50;99.90
28193;DHT22;15473;50.840;3.396;2022-10-22T02:22:38;14.60;99.90
28193;DHT22;15473;50.840;3.396;2022-10-22T02:25:10;14.50;99.90
28193;DHT22;15473;50.840;3.396;2022-10-22T02:27:51;14.60;99.90
28193;DHT22;15473;50.840;3.396;2022-10-22T02:30:18;14.60;99.90
28193;DHT22;15473;50.840;3.396;2022-10-22T02:33:10;14.60;99.90
28193;DHT22;15473;50.840;3.396;2022-10-22T02:35:40;14.60;99.90
28193;DHT22;15473;50.840;3.396;2022-10-22T02:38:12;14.60;99.90
28193;DHT22;15473;50.840;3.396;2022-10-22T02:40:43;14.60;99.90
28193;DHT22;15473;50.840;3.396;2022-10-22T02:43:13;14.70;99.90
28193;DHT22;15473;50.840;3.396;2022-10-22T02:45:43;14.70;99.90
28193;DHT22;15473;50.840;3.396;2022-10-22T02:48:13;14.60;99.90
28193;DHT22;15473;50.840;3.396;2022-10-22T02:50:43;14.70;99.90
28193;DHT22;15473;50.840;3.396;2022-10-22T02:53:13;14.70;99.90
28193;DHT22;15473;50.840;3.396;2022-10-22T02:55:43;14.70;99.90
28193;DHT22;15473;50.840;3.396;2022-10-22T02:58:13;14.70;99.90
28193;DHT22;15473;50.840;3.396;2022-10-22T03:00:43;14.70;99.90
28193;DHT22;15473;50.840;3.396;2022-10-22T03:03:13;14.80;99.90
28193;DHT22;15473;50.840;3.396;2022-10-22T03:05:43;14.80;99.90
28193;DHT22;15473;50.840;3.396;2022-10-22T03:08:13;14.70;99.90
28193;DHT22;15473;50.840;3.396;2022-10-22T03:10:43;14.70;99.90
28193;DHT22;15473;50.840;3.396;2022-10-22T03:13:15;14.70;99.90
28193;DHT22;15473;50.840;3.396;2022-10-22T03:15:48;14.80;99.90
28193;DHT22;15473;50.840;3.396;2022-10-22T03:18:18;14.70;99.90
28193;DHT22;15473;50.840;3.396;2022-10-22T03:20:48;14.70;99.90
28193;DHT22;15473;50.840;3.396;2022-10-22T03:23:19;14.70;99.90
28193;DHT22;15473;50.840;3.396;2022-10-22T03:25:49;14.60;99.90
28193;DHT22;15473;50.840;3.396;2022-10-22T03:28:19;14.70;99.90
28193;DHT22;15473;50.840;3.396;2022-10-22T03:30:49;14.70;99.90
28193;DHT22;15473;50.840;3.396;2022-10-22T03:33:19;14.70;99.90
28193;DHT22;15473;50.840;3.396;2022-10-22T03:35:49;14.80;99.90
28193;DHT22;15473;50.840;3.396;2022-10-22T03:38:20;14.70;99.90
28193;DHT22;15473;50.840;3.396;2022-10-22T03:40:50;14.60;99.90
28193;DHT22;15473;50.840;3.396;2022-10-22T03:43:20;14.60;99.90
28193;DHT22;15473;50.840;3.396;2022-10-22T03:45:50;14.60;99.90
28193;DHT22;15473;50.840;3.396;2022-10-22T03:48:20;14.60;99.90
28193;DHT22;15473;50.840;3.396;2022-10-22T03:50:50;14.70;99.90
28193;DHT22;15473;50.840;3.396;2022-10-22T03:53:20;14.70;99.90
28193;DHT22;15473;50.840;3.396;2022-10-22T03:55:50;14.70;99.90
28193;DHT22;15473;50.840;3.396;2022-10-22T03:58:20;14.70;99.90
28193;DHT22;15473;50.840;3.396;2022-10-22T04:00:50;14.80;99.90
28193;DHT22;15473;50.840;3.396;2022-10-22T04:03:20;14.70;99.90
28193;DHT22;15473;50.840;3.396;2022-10-22T04:05:50;14.70;99.90
28193;DHT22;15473;50.840;3.396;2022-10-22T04:08:21;14.80;99.90
28193;DHT22;15473;50.840;3.396;2022-10-22T04:10:51;14.80;99.90
28193;DHT22;15473;50.840;3.396;2022-10-22T04:13:21;14.70;99.90
28193;DHT22;15473;50.840;3.396;2022-10-22T04:15:53;14.70;99.90
28193;DHT22;15473;50.840;3.396;2022-10-22T04:18:23;14.60;99.90
28193;DHT22;15473;50.840;3.396;2022-10-22T04:20:53;14.60;99.90
28193;DHT22;15473;50.840;3.396;2022-10-22T04:23:23;14.60;99.90
28193;DHT22;15473;50.840;3.396;2022-10-22T04:26:01;14.60;99.90
28193;DHT22;15473;50.840;3.396;2022-10-22T04:28:33;14.70;99.90
28193;DHT22;15473;50.840;3.396;2022-10-22T04:31:11;14.70;99.90
28193;DHT22;15473;50.840;3.396;2022-10-22T04:33:41;14.70;99.90
28193;DHT22;15473;50.840;3.396;2022-10-22T04:36:14;14.70;99.90
28193;DHT22;15473;50.840;3.396;2022-10-22T04:38:45;14.80;99.90
28193;DHT22;15473;50.840;3.396;2022-10-22T04:41:19;14.90;99.90
28193;DHT22;15473;50.840;3.396;2022-10-22T04:43:49;14.80;99.90
28193;DHT22;15473;50.840;3.396;2022-10-22T04:46:19;14.80;99.90
28193;DHT22;15473;50.840;3.396;2022-10-22T04:48:50;14.80;99.90
28193;DHT22;15473;50.840;3.396;2022-10-22T04:51:22;14.90;99.90
28193;DHT22;15473;50.840;3.396;2022-10-22T04:53:52;15.00;99.90
28193;DHT22;15473;50.840;3.396;2022-10-22T04:56:24;14.90;99.90
28193;DHT22;15473;50.840;3.396;2022-10-22T04:58:57;14.90;99.90
28193;DHT22;15473;50.840;3.396;2022-10-22T05:01:30;14.90;99.90
28193;DHT22;15473;50.840;3.396;2022-10-22T05:04:02;14.90;99.90
28193;DHT22;15473;50.840;3.396;2022-10-22T05:06:34;14.80;99.90
28193;DHT22;15473;50.840;3.396;2022-10-22T05:09:07;14.80;99.90
28193;DHT22;15473;50.840;3.396;2022-10-22T05:11:38;14.80;99.90
28193;DHT22;15473;50.840;3.396;2022-10-22T05:14:12;14.80;99.90
28193;DHT22;15473;50.840;3.396;2022-10-22T05:16:42;14.80;99.90
28193;DHT22;15473;50.840;3.396;2022-10-22T05:19:17;14.90;99.90
28193;DHT22;15473;50.840;3.396;2022-10-22T05:21:48;14.90;99.90
28193;DHT22;15473;50.840;3.396;2022-10-22T05:24:20;14.90;99.90
28193;DHT22;15473;50.840;3.396;2022-10-22T05:26:52;14.80;99.90
28193;DHT22;15473;50.840;3.396;2022-10-22T05:29:22;14.80;99.90
28193;DHT22;15473;50.840;3.396;2022-10-22T05:31:53;14.90;99.90
28193;DHT22;15473;50.840;3.396;2022-10-22T05:34:23;14.90;99.90
28193;DHT22;15473;50.840;3.396;2022-10-22T05:36:57;14.90;99.90
28193;DHT22;15473;50.840;3.396;2022-10-22T05:39:27;15.00;99.90
28193;DHT22;15473;50.840;3.396;2022-10-22T05:41:57;14.90;99.90
28193;DHT22;15473;50.840;3.396;2022-10-22T05:44:27;14.90;99.90
28193;DHT22;15473;50.840;3.396;2022-10-22T05:46:57;15.00;99.90
28193;DHT22;15473;50.840;3.396;2022-10-22T05:49:27;14.90;99.90
28193;DHT22;15473;50.840;3.396;2022-10-22T05:51:57;15.00;99.90
28193;DHT22;15473;50.840;3.396;2022-10-22T05:54:29;15.10;99.90
28193;DHT22;15473;50.840;3.396;2022-10-22T05:57:00;15.00;99.90
28193;DHT22;15473;50.840;3.396;2022-10-22T05:59:30;15.00;99.90
28193;DHT22;15473;50.840;3.396;2022-10-22T06:02:00;14.90;99.90
28193;DHT22;15473;50.840;3.396;2022-10-22T06:04:30;14.90;99.90
28193;DHT22;15473;50.840;3.396;2022-10-22T06:07:00;14.90;99.90
28193;DHT22;15473;50.840;3.396;2022-10-22T06:09:35;15.00;99.90
28193;DHT22;15473;50.840;3.396;2022-10-22T06:12:12;14.90;99.90
28193;DHT22;15473;50.840;3.396;2022-10-22T06:14:42;14.90;99.90
28193;DHT22;15473;50.840;3.396;2022-10-22T06:17:12;15.00;99.90
28193;DHT22;15473;50.840;3.396;2022-10-22T06:19:42;15.00;99.90
28193;DHT22;15473;50.840;3.396;2022-10-22T06:22:12;15.00;99.90
28193;DHT22;15473;50.840;3.396;2022-10-22T06:24:42;14.90;99.90
28193;DHT22;15473;50.840;3.396;2022-10-22T06:27:12;14.70;99.90
28193;DHT22;15473;50.840;3.396;2022-10-22T06:29:42;14.70;99.90
28193;DHT22;15473;50.840;3.396;2022-10-22T06:32:13;14.70;99.90
28193;DHT22;15473;50.840;3.396;2022-10-22T06:34:43;14.70;99.90
28193;DHT22;15473;50.840;3.396;2022-10-22T06:37:14;14.70;99.90
28193;DHT22;15473;50.840;3.396;2022-10-22T06:39:44;14.70;99.90
28193;DHT22;15473;50.840;3.396;2022-10-22T06:42:14;14.70;99.90
28193;DHT22;15473;50.840;3.396;2022-10-22T06:44:44;14.70;99.90
28193;DHT22;15473;50.840;3.396;2022-10-22T06:47:16;14.60;99.90
28193;DHT22;15473;50.840;3.396;2022-10-22T06:49:47;14.60;99.90
28193;DHT22;15473;50.840;3.396;2022-10-22T06:52:18;14.60;99.90
28193;DHT22;15473;50.840;3.396;2022-10-22T06:54:48;14.60;99.90
28193;DHT22;15473;50.840;3.396;2022-10-22T06:57:18;14.60;99.90
28193;DHT22;15473;50.840;3.396;2022-10-22T06:59:48;14.60;99.90
28193;DHT22;15473;50.840;3.396;2022-10-22T07:02:18;14.60;99.90
28193;DHT22;15473;50.840;3.396;2022-10-22T07:04:48;14.70;99.90
28193;DHT22;15473;50.840;3.396;2022-10-22T07:07:18;14.80;99.90
28193;DHT22;15473;50.840;3.396;2022-10-22T07:09:54;14.90;99.90
28193;DHT22;15473;50.840;3.396;2022-10-22T07:12:25;15.00;99.90
28193;DHT22;15473;50.840;3.396;2022-10-22T07:14:55;15.20;99.90
28193;DHT22;15473;50.840;3.396;2022-10-22T07:17:25;15.20;99.90
28193;DHT22;15473;50.840;3.396;2022-10-22T07:19:55;15.20;99.90
28193;DHT22;15473;50.840;3.396;2022-10-22T07:22:26;15.20;99.90
28193;DHT22;15473;50.840;3.396;2022-10-22T07:24:56;15.20;99.90
28193;DHT22;15473;50.840;3.396;2022-10-22T07:27:26;15.30;99.90
28193;DHT22;15473;50.840;3.396;2022-10-22T07:30:18;15.30;99.90
28193;DHT22;15473;50.840;3.396;2022-10-22T07:32:48;15.30;99.90
28193;DHT22;15473;50.840;3.396;2022-10-22T07:35:18;15.30;99.90
28193;DHT22;15473;50.840;3.396;2022-10-22T07:37:48;15.30;99.90
28193;DHT22;15473;50.840;3.396;2022-10-22T07:40:18;15.40;99.90
28193;DHT22;15473;50.840;3.396;2022-10-22T07:42:49;15.60;99.90
28193;DHT22;15473;50.840;3.396;2022-10-22T07:45:22;15.70;99.90
28193;DHT22;15473;50.840;3.396;2022-10-22T07:47:52;15.90;99.90
28193;DHT22;15473;50.840;3.396;2022-10-22T07:50:23;15.90;99.90
28193;DHT22;15473;50.840;3.396;2022-10-22T07:52:53;15.90;99.90
28193;DHT22;15473;50.840;3.396;2022-10-22T07:55:30;15.80;99.90
28193;DHT22;15473;50.840;3.396;2022-10-22T07:58:00;15.80;99.90
28193;DHT22;15473;50.840;3.396;2022-10-22T08:00:34;15.80;99.90
28193;DHT22;15473;50.840;3.396;2022-10-22T08:03:05;15.80;99.90
28193;DHT22;15473;50.840;3.396;2022-10-22T08:05:37;15.90;99.90
28193;DHT22;15473;50.840;3.396;2022-10-22T08:08:11;16.00;99.90
28193;DHT22;15473;50.840;3.396;2022-10-22T08:10:42;16.10;99.90
28193;DHT22;15473;50.840;3.396;2022-10-22T08:13:12;16.20;99.90
28193;DHT22;15473;50.840;3.396;2022-10-22T08:15:43;16.30;99.90
28193;DHT22;15473;50.840;3.396;2022-10-22T08:18:14;16.50;99.90
28193;DHT22;15473;50.840;3.396;2022-10-22T08:20:44;16.60;99.90
28193;DHT22;15473;50.840;3.396;2022-10-22T08:23:14;16.60;99.90
28193;DHT22;15473;50.840;3.396;2022-10-22T08:25:45;16.70;99.90
28193;DHT22;15473;50.840;3.396;2022-10-22T08:28:15;16.70;99.90
28193;DHT22;15473;50.840;3.396;2022-10-22T08:30:45;16.50;99.90
28193;DHT22;15473;50.840;3.396;2022-10-22T08:33:16;16.40;99.90
28193;DHT22;15473;50.840;3.396;2022-10-22T08:38:40;16.30;99.90
28193;DHT22;15473;50.840;3.396;2022-10-22T08:41:15;16.30;99.90
28193;DHT22;15473;50.840;3.396;2022-10-22T08:43:59;16.20;99.90
28193;DHT22;15473;50.840;3.396;2022-10-22T08:49:31;16.40;99.90
28193;DHT22;15473;50.840;3.396;2022-10-22T08:51:57;16.40;99.90
28193;DHT22;15473;50.840;3.396;2022-10-22T08:54:36;16.40;99.90
28193;DHT22;15473;50.840;3.396;2022-10-22T08:57:18;16.50;99.90
28193;DHT22;15473;50.840;3.396;2022-10-22T09:02:34;16.60;99.90
28193;DHT22;15473;50.840;3.396;2022-10-22T09:07:48;16.70;99.90
28193;DHT22;15473;50.840;3.396;2022-10-22T09:10:28;16.80;99.90
28193;DHT22;15473;50.840;3.396;2022-10-22T09:12:58;16.60;99.90
28193;DHT22;15473;50.840;3.396;2022-10-22T09:15:29;16.60;99.90
28193;DHT22;15473;50.840;3.396;2022-10-22T09:21:09;16.60;99.90
28193;DHT22;15473;50.840;3.396;2022-10-22T09:23:38;16.50;99.90
28193;DHT22;15473;50.840;3.396;2022-10-22T09:29:18;16.50;99.90
28193;DHT22;15473;50.840;3.396;2022-10-22T09:31:48;16.60;99.90
28193;DHT22;15473;50.840;3.396;2022-10-22T09:34:21;16.70;99.90
28193;DHT22;15473;50.840;3.396;2022-10-22T09:39:50;16.90;99.90
28193;DHT22;15473;50.840;3.396;2022-10-22T09:45:27;16.90;99.90
28193;DHT22;15473;50.840;3.396;2022-10-22T09:48:09;16.80;99.90
28193;DHT22;15473;50.840;3.396;2022-10-22T09:50:49;16.80;99.90
28193;DHT22;15473;50.840;3.396;2022-10-22T09:53:25;16.80;99.90
28193;DHT22;15473;50.840;3.396;2022-10-22T09:55:57;16.90;99.90
28193;DHT22;15473;50.840;3.396;2022-10-22T09:58:27;16.90;99.90
28193;DHT22;15473;50.840;3.396;2022-10-22T10:00:59;16.90;99.90
28193;DHT22;15473;50.840;3.396;2022-10-22T10:03:45;16.90;99.90
28193;DHT22;15473;50.840;3.396;2022-10-22T10:06:09;17.10;99.90
28193;DHT22;15473;50.840;3.396;2022-10-22T10:08:40;17.20;99.90
28193;DHT22;15473;50.840;3.396;2022-10-22T10:11:33;17.30;99.90
28193;DHT22;15473;50.840;3.396;2022-10-22T10:14:13;17.30;99.90
28193;DHT22;15473;50.840;3.396;2022-10-22T10:16:57;17.40;99.90
28193;DHT22;15473;50.840;3.396;2022-10-22T10:28:20;17.60;99.90
28193;DHT22;15473;50.840;3.396;2022-10-22T10:30:43;17.70;99.90
28193;DHT22;15473;50.840;3.396;2022-10-22T10:33:37;17.80;99.90
28193;DHT22;15473;50.840;3.396;2022-10-22T10:36:23;17.70;99.90
28193;DHT22;15473;50.840;3.396;2022-10-22T10:38:56;17.70;99.90
28193;DHT22;15473;50.840;3.396;2022-10-22T10:41:55;17.80;99.90
28193;DHT22;15473;50.840;3.396;2022-10-22T10:44:23;17.80;99.90
28193;DHT22;15473;50.840;3.396;2022-10-22T10:47:02;17.80;99.90
28193;DHT22;15473;50.840;3.396;2022-10-22T10:49:32;17.80;99.90
28193;DHT22;15473;50.840;3.396;2022-10-22T10:55:48;18.00;99.90
28193;DHT22;15473;50.840;3.396;2022-10-22T10:58:24;18.10;99.90
28193;DHT22;15473;50.840;3.396;2022-10-22T11:00:57;18.10;99.90
28193;DHT22;15473;50.840;3.396;2022-10-22T11:03:55;18.20;99.90
28193;DHT22;15473;50.840;3.396;2022-10-22T11:06:22;18.10;99.90
28193;DHT22;15473;50.840;3.396;2022-10-22T11:09:02;17.90;99.90
28193;DHT22;15473;50.840;3.396;2022-10-22T11:17:17;17.90;99.90
28193;DHT22;15473;50.840;3.396;2022-10-22T11:25:26;17.40;99.90
28193;DHT22;15473;50.840;3.396;2022-10-22T11:28:01;17.40;99.90
28193;DHT22;15473;50.840;3.396;2022-10-22T11:30:34;17.50;99.90
28193;DHT22;15473;50.840;3.396;2022-10-22T11:33:09;17.50;99.90
28193;DHT22;15473;50.840;3.396;2022-10-22T11:35:44;17.60;99.90
28193;DHT22;15473;50.840;3.396;2022-10-22T11:38:15;17.50;99.90
28193;DHT22;15473;50.840;3.396;2022-10-22T11:41:01;17.50;99.90
28193;DHT22;15473;50.840;3.396;2022-10-22T11:43:50;17.40;99.90
28193;DHT22;15473;50.840;3.396;2022-10-22T11:51:45;17.60;99.90
28193;DHT22;15473;50.840;3.396;2022-10-22T11:54:40;17.70;99.90
28193;DHT22;15473;50.840;3.396;2022-10-22T11:57:18;17.80;99.90
28193;DHT22;15473;50.840;3.396;2022-10-22T11:59:51;17.80;99.90
28193;DHT22;15473;50.840;3.396;2022-10-22T12:08:22;17.90;99.90
28193;DHT22;15473;50.840;3.396;2022-10-22T12:14:10;17.80;99.90
28193;DHT22;15473;50.840;3.396;2022-10-22T12:17:24;17.90;99.90
28193;DHT22;15473;50.840;3.396;2022-10-22T12:21:58;18.00;99.90
28193;DHT22;15473;50.840;3.396;2022-10-22T12:24:30;18.10;99.90
28193;DHT22;15473;50.840;3.396;2022-10-22T12:27:01;18.10;99.90
28193;DHT22;15473;50.840;3.396;2022-10-22T12:29:32;18.00;99.90
28193;DHT22;15473;50.840;3.396;2022-10-22T12:32:03;18.00;99.90
28193;DHT22;15473;50.840;3.396;2022-10-22T12:34:34;17.90;99.90
28193;DHT22;15473;50.840;3.396;2022-10-22T12:37:09;17.90;99.90
28193;DHT22;15473;50.840;3.396;2022-10-22T12:39:39;17.90;99.90
28193;DHT22;15473;50.840;3.396;2022-10-22T12:42:14;17.90;99.90
28193;DHT22;15473;50.840;3.396;2022-10-22T12:44:46;17.90;99.90
28193;DHT22;15473;50.840;3.396;2022-10-22T12:47:17;18.00;99.90
28193;DHT22;15473;50.840;3.396;2022-10-22T12:49:50;18.00;99.90
28193;DHT22;15473;50.840;3.396;2022-10-22T12:52:21;18.00;99.90
28193;DHT22;15473;50.840;3.396;2022-10-22T12:54:53;18.00;99.90
28193;DHT22;15473;50.840;3.396;2022-10-22T12:57:24;18.10;99.90
28193;DHT22;15473;50.840;3.396;2022-10-22T12:59:56;18.20;99.90
28193;DHT22;15473;50.840;3.396;2022-10-22T13:02:27;18.10;99.90
28193;DHT22;15473;50.840;3.396;2022-10-22T13:08:01;18.10;99.90
28193;DHT22;15473;50.840;3.396;2022-10-22T13:10:36;18.10;99.90
28193;DHT22;15473;50.840;3.396;2022-10-22T13:13:01;18.00;99.90
28193;DHT22;15473;50.840;3.396;2022-10-22T13:15:36;18.10;99.90
28193;DHT22;15473;50.840;3.396;2022-10-22T13:18:21;18.10;99.90
28193;DHT22;15473;50.840;3.396;2022-10-22T13:20:57;18.20;99.90
28193;DHT22;15473;50.840;3.396;2022-10-22T13:23:31;18.30;99.90
28193;DHT22;15473;50.840;3.396;2022-10-22T13:26:16;18.30;99.90
28193;DHT22;15473;50.840;3.396;2022-10-22T13:28:56;18.30;99.90
28193;DHT22;15473;50.840;3.396;2022-10-22T13:31:24;18.30;99.90
28193;DHT22;15473;50.840;3.396;2022-10-22T13:34:01;18.20;99.90
28193;DHT22;15473;50.840;3.396;2022-10-22T13:36:32;18.20;99.90
28193;DHT22;15473;50.840;3.396;2022-10-22T13:39:05;18.10;99.90
28193;DHT22;15473;50.840;3.396;2022-10-22T13:41:39;18.10;99.90
28193;DHT22;15473;50.840;3.396;2022-10-22T13:44:09;18.20;99.90
28193;DHT22;15473;50.840;3.396;2022-10-22T13:46:39;18.30;99.90
28193;DHT22;15473;50.840;3.396;2022-10-22T13:49:30;18.20;99.90
28193;DHT22;15473;50.840;3.396;2022-10-22T13:52:00;18.10;99.90
28193;DHT22;15473;50.840;3.396;2022-10-22T13:54:30;18.10;99.90
28193;DHT22;15473;50.840;3.396;2022-10-22T13:57:00;18.00;99.90
28193;DHT22;15473;50.840;3.396;2022-10-22T13:59:31;18.00;99.90
28193;DHT22;15473;50.840;3.396;2022-10-22T14:02:01;18.00;99.90
28193;DHT22;15473;50.840;3.396;2022-10-22T14:04:40;18.00;99.90
28193;DHT22;15473;50.840;3.396;2022-10-22T14:07:14;18.10;99.90
28193;DHT22;15473;50.840;3.396;2022-10-22T14:09:45;18.10;99.90
28193;DHT22;15473;50.840;3.396;2022-10-22T14:12:16;18.20;99.90
28193;DHT22;15473;50.840;3.396;2022-10-22T14:14:46;18.10;99.90
28193;DHT22;15473;50.840;3.396;2022-10-22T14:17:16;18.10;99.90
28193;DHT22;15473;50.840;3.396;2022-10-22T14:19:48;18.10;99.90
28193;DHT22;15473;50.840;3.396;2022-10-22T14:22:19;18.10;99.90
28193;DHT22;15473;50.840;3.396;2022-10-22T14:24:49;18.00;99.90
28193;DHT22;15473;50.840;3.396;2022-10-22T14:27:19;18.00;99.90
28193;DHT22;15473;50.840;3.396;2022-10-22T14:29:50;18.00;99.90
28193;DHT22;15473;50.840;3.396;2022-10-22T14:32:20;18.00;99.90
28193;DHT22;15473;50.840;3.396;2022-10-22T14:34:50;18.00;99.90
28193;DHT22;15473;50.840;3.396;2022-10-22T14:37:20;17.90;99.90
28193;DHT22;15473;50.840;3.396;2022-10-22T14:39:51;17.90;99.90
28193;DHT22;15473;50.840;3.396;2022-10-22T14:42:24;17.80;99.90
28193;DHT22;15473;50.840;3.396;2022-10-22T14:44:55;17.90;99.90
28193;DHT22;15473;50.840;3.396;2022-10-22T14:47:25;17.80;99.90
28193;DHT22;15473;50.840;3.396;2022-10-22T14:49:55;17.80;99.90
28193;DHT22;15473;50.840;3.396;2022-10-22T14:52:25;17.80;99.90
28193;DHT22;15473;50.840;3.396;2022-10-22T14:54:55;17.70;99.90
28193;DHT22;15473;50.840;3.396;2022-10-22T14:57:25;17.70;99.90
28193;DHT22;15473;50.840;3.396;2022-10-22T14:59:57;17.70;99.90
28193;DHT22;15473;50.840;3.396;2022-10-22T15:02:27;17.70;99.90
28193;DHT22;15473;50.840;3.396;2022-10-22T15:04:57;17.70;99.90
28193;DHT22;15473;50.840;3.396;2022-10-22T15:07:27;17.60;99.90
28193;DHT22;15473;50.840;3.396;2022-10-22T15:09:57;17.60;99.90
28193;DHT22;15473;50.840;3.396;2022-10-22T15:12:27;17.60;99.90
28193;DHT22;15473;50.840;3.396;2022-10-22T15:14:58;17.60;99.90
28193;DHT22;15473;50.840;3.396;2022-10-22T15:17:28;17.60;99.90
28193;DHT22;15473;50.840;3.396;2022-10-22T15:19:59;17.60;99.90
28193;DHT22;15473;50.840;3.396;2022-10-22T15:22:31;17.60;99.90
28193;DHT22;15473;50.840;3.396;2022-10-22T15:25:05;17.60;99.90
28193;DHT22;15473;50.840;3.396;2022-10-22T15:27:36;17.60;99.90
28193;DHT22;15473;50.840;3.396;2022-10-22T15:30:07;17.60;99.90
28193;DHT22;15473;50.840;3.396;2022-10-22T15:32:37;17.60;99.90
28193;DHT22;15473;50.840;3.396;2022-10-22T15:35:09;17.50;99.90
28193;DHT22;15473;50.840;3.396;2022-10-22T15:37:40;17.50;99.90
28193;DHT22;15473;50.840;3.396;2022-10-22T15:40:10;17.50;99.90
28193;DHT22;15473;50.840;3.396;2022-10-22T15:42:40;17.40;99.90
28193;DHT22;15473;50.840;3.396;2022-10-22T15:45:10;17.40;99.90
28193;DHT22;15473;50.840;3.396;2022-10-22T15:47:45;17.40;99.90
28193;DHT22;15473;50.840;3.396;2022-10-22T15:50:16;17.40;99.90
28193;DHT22;15473;50.840;3.396;2022-10-22T15:52:46;17.30;99.90
28193;DHT22;15473;50.840;3.396;2022-10-22T15:55:17;17.30;99.90
28193;DHT22;15473;50.840;3.396;2022-10-22T15:57:47;17.30;99.90
28193;DHT22;15473;50.840;3.396;2022-10-22T16:00:19;17.20;99.90
28193;DHT22;15473;50.840;3.396;2022-10-22T16:02:49;17.10;99.90
28193;DHT22;15473;50.840;3.396;2022-10-22T16:05:21;17.10;99.90
28193;DHT22;15473;50.840;3.396;2022-10-22T16:07:51;17.00;99.90
28193;DHT22;15473;50.840;3.396;2022-10-22T16:10:23;16.90;99.90
28193;DHT22;15473;50.840;3.396;2022-10-22T16:12:55;16.90;99.90
28193;DHT22;15473;50.840;3.396;2022-10-22T16:15:25;16.80;99.90
28193;DHT22;15473;50.840;3.396;2022-10-22T16:17:55;16.80;99.90
28193;DHT22;15473;50.840;3.396;2022-10-22T16:20:25;16.70;99.90
28193;DHT22;15473;50.840;3.396;2022-10-22T16:22:55;16.70;99.90
28193;DHT22;15473;50.840;3.396;2022-10-22T16:25:25;16.60;99.90
28193;DHT22;15473;50.840;3.396;2022-10-22T16:27:56;16.60;99.90
28193;DHT22;15473;50.840;3.396;2022-10-22T16:30:26;16.50;99.90
28193;DHT22;15473;50.840;3.396;2022-10-22T16:32:58;16.40;99.90
28193;DHT22;15473;50.840;3.396;2022-10-22T16:35:28;16.30;99.90
28193;DHT22;15473;50.840;3.396;2022-10-22T16:37:59;16.30;99.90
28193;DHT22;15473;50.840;3.396;2022-10-22T16:40:29;16.20;99.90
28193;DHT22;15473;50.840;3.396;2022-10-22T16:42:59;16.20;99.90
28193;DHT22;15473;50.840;3.396;2022-10-22T16:45:29;16.10;99.90
28193;DHT22;15473;50.840;3.396;2022-10-22T16:47:59;16.00;99.90
28193;DHT22;15473;50.840;3.396;2022-10-22T16:50:29;16.00;99.90
28193;DHT22;15473;50.840;3.396;2022-10-22T16:52:59;15.90;99.90
28193;DHT22;15473;50.840;3.396;2022-10-22T16:55:29;15.90;99.90
28193;DHT22;15473;50.840;3.396;2022-10-22T16:58:00;15.90;99.90
28193;DHT22;15473;50.840;3.396;2022-10-22T17:00:30;15.80;99.90
28193;DHT22;15473;50.840;3.396;2022-10-22T17:03:00;15.80;99.90
28193;DHT22;15473;50.840;3.396;2022-10-22T17:05:30;15.70;99.90
28193;DHT22;15473;50.840;3.396;2022-10-22T17:08:00;15.80;99.90
28193;DHT22;15473;50.840;3.396;2022-10-22T17:10:30;15.80;99.90
28193;DHT22;15473;50.840;3.396;2022-10-22T17:13:00;15.70;99.90
28193;DHT22;15473;50.840;3.396;2022-10-22T17:15:31;15.70;99.90
28193;DHT22;15473;50.840;3.396;2022-10-22T17:18:01;15.70;99.90
28193;DHT22;15473;50.840;3.396;2022-10-22T17:20:32;15.60;99.90
28193;DHT22;15473;50.840;3.396;2022-10-22T17:23:02;15.60;99.90
28193;DHT22;15473;50.840;3.396;2022-10-22T17:25:43;15.60;99.90
28193;DHT22;15473;50.840;3.396;2022-10-22T17:28:14;15.60;99.90
28193;DHT22;15473;50.840;3.396;2022-10-22T17:30:44;15.50;99.90